Time;durP1;ratioP1;P1;durP2;ratioP2;P2;SDS_P1;SDS_P2;PMS_P1;PMS_P2;Temp;Humidity;BMP_temperature;BMP_pressure;BME280_temperature;BME280_humidity;BME280_pressure;Samples;Min_cycle;Max_cycle;Signal;HPM_P1;HPM_P2
2022/05/09 00:02:12;;;;;;;28.77;11.38;;;;;;;11.98;61.31;99958.00;4994007;28;20045;-74
2022/05/09 00:04:38;;;;;;;27.15;13.00;;;;;;;11.94;61.45;99975.50;4977563;28;20022;-75
2022/05/09 00:07:04;;;;;;;26.45;13.50;;;;;;;12.05;61.26;99997.59;4977039;28;20085;-75
2022/05/09 00:09:30;;;;;;;31.80;13.35;;;;;;;11.92;61.34;99980.59;4991957;28;20052;-75
2022/05/09 00:11:56;;;;;;;20.35;13.07;;;;;;;11.75;62.83;99989.81;5013822;28;20030;-74
2022/05/09 00:14:21;;;;;;;19.20;13.20;;;;;;;11.78;62.97;99993.97;5012503;28;20029;-75
2022/05/09 00:16:47;;;;;;;19.73;12.27;;;;;;;11.87;62.59;99999.53;5013559;28;20026;-75
2022/05/09 00:19:17;;;;;;;30.40;13.48;;;;;;;11.96;62.18;99974.34;4994123;28;20124;-75
2022/05/09 00:21:43;;;;;;;20.02;11.50;;;;;;;11.88;62.31;99976.81;4993946;28;20022;-75
2022/05/09 00:24:14;;;;;;;19.38;13.52;;;;;;;11.97;61.84;99990.00;4985793;28;20042;-75
2022/05/09 00:26:41;;;;;;;21.15;12.35;;;;;;;11.98;61.70;99977.63;4976316;28;20497;-75
2022/05/09 00:29:08;;;;;;;20.17;12.38;;;;;;;11.97;61.65;99973.97;5005826;28;20504;-75
2022/05/09 00:31:34;;;;;;;16.00;12.30;;;;;;;11.90;62.52;99988.50;4976410;28;20058;-75
2022/05/09 00:34:00;;;;;;;16.35;11.98;;;;;;;11.75;63.34;99984.22;4988288;28;20044;-74
2022/05/09 00:36:26;;;;;;;22.27;12.93;;;;;;;11.92;62.38;99991.78;4993878;28;20036;-74
2022/05/09 00:38:51;;;;;;;20.83;12.02;;;;;;;11.95;62.40;99995.91;4999632;28;20089;-75
2022/05/09 00:41:37;;;;;;;20.63;12.80;;;;;;;11.94;62.72;99986.72;4995527;28;20492;-75
2022/05/09 00:44:18;;;;;;;17.17;11.32;;;;;;;12.12;61.97;100008.28;5009024;28;20026;-75
2022/05/09 00:46:46;;;;;;;16.35;11.32;;;;;;;11.77;62.12;99987.53;4976249;28;20030;-75
2022/05/09 00:49:23;;;;;;;21.10;10.93;;;;;;;11.82;62.20;100008.13;4987493;28;20022;-75
2022/05/09 00:52:03;;;;;;;18.02;11.32;;;;;;;11.34;63.09;99980.78;4976106;28;20540;-75
2022/05/09 00:54:32;;;;;;;;;;;;;;;11.40;62.98;100001.03;4976396;28;20038;-75
2022/05/09 00:57:04;;;;;;;15.38;10.77;;;;;;;11.49;62.69;100004.66;4976044;28;20305;-75
2022/05/09 00:59:33;;;;;;;15.77;11.02;;;;;;;11.19;63.65;100003.63;4993529;28;20413;-75
2022/05/09 01:01:59;;;;;;;15.50;11.40;;;;;;;10.80;64.98;99995.78;4975322;28;20034;-75
2022/05/09 01:04:28;;;;;;;18.83;12.23;;;;;;;10.54;65.22;99970.50;4993270;28;20390;-75
2022/05/09 01:06:55;;;;;;;13.95;12.15;;;;;;;10.16;66.49;99971.78;4993417;28;20031;-76
2022/05/09 01:09:20;;;;;;;13.23;10.75;;;;;;;9.74;68.32;99983.16;4985699;28;20022;-76
2022/05/09 01:11:48;;;;;;;17.98;12.32;;;;;;;9.55;68.69;99963.81;4975541;28;20030;-75
2022/05/09 01:14:24;;;;;;;15.15;11.80;;;;;;;9.75;68.54;100004.38;4993304;28;20030;-75
2022/05/09 01:16:50;;;;;;;15.77;11.75;;;;;;;9.35;69.53;99982.69;4985229;28;20472;-75
2022/05/09 01:19:33;;;;;;;14.73;11.13;;;;;;;8.96;71.27;100000.84;4975666;28;20033;-75
2022/05/09 01:22:00;;;;;;;15.85;11.38;;;;;;;8.90;72.10;99988.97;4975652;28;20157;-75
2022/05/09 01:24:27;;;;;;;17.90;13.05;;;;;;;9.26;70.90;99998.50;4999826;28;20021;-75
2022/05/09 01:26:53;;;;;;;19.05;11.70;;;;;;;9.18;70.80;99985.31;4982897;28;20461;-75
2022/05/09 01:29:47;;;;;;;18.88;12.10;;;;;;;9.59;70.53;100003.91;4993074;28;20057;-74
2022/05/09 01:32:17;;;;;;;15.77;11.20;;;;;;;9.21;70.16;99979.09;4979226;28;20145;-74
2022/05/09 01:34:48;;;;;;;15.25;11.88;;;;;;;9.23;70.71;99996.34;4991925;28;20133;-75
2022/05/09 01:37:15;;;;;;;14.57;11.27;;;;;;;9.20;70.60;99985.81;4992706;28;20168;-74
2022/05/09 01:39:41;;;;;;;11.85;10.45;;;;;;;9.12;70.48;100006.94;4991191;28;20112;-75
2022/05/09 01:42:09;;;;;;;20.80;10.55;;;;;;;9.01;70.86;99991.53;5006837;28;20467;-75
2022/05/09 01:44:37;;;;;;;21.98;10.02;;;;;;;9.02;70.73;100007.13;4994689;28;20036;-75
2022/05/09 01:49:48;;;;;;;13.82;10.75;;;;;;;8.93;71.21;100002.28;4997811;28;20037;-76
2022/05/09 01:52:16;;;;;;;14.88;10.57;;;;;;;8.68;71.43;99978.50;4974566;28;20350;-75
2022/05/09 01:54:43;;;;;;;16.33;11.02;;;;;;;8.37;72.77;99985.47;4988529;28;20026;-74
2022/05/09 01:57:10;;;;;;;17.25;11.13;;;;;;;8.23;72.71;99988.28;5011378;28;20045;-75
2022/05/09 01:59:38;;;;;;;21.27;11.90;;;;;;;8.35;72.70;100000.88;5012066;28;20155;-75
2022/05/09 02:02:10;;;;;;;13.57;9.38;;;;;;;7.86;73.74;99987.25;4982899;28;20038;-75
2022/05/09 02:04:40;;;;;;;17.08;11.18;;;;;;;8.23;73.62;100005.00;4979824;28;20476;-74
2022/05/09 02:07:09;;;;;;;17.70;10.18;;;;;;;8.71;71.65;100008.59;4994260;28;20100;-74
2022/05/09 02:09:38;;;;;;;12.95;9.73;;;;;;;8.53;71.24;99977.69;4994354;28;20029;-75
2022/05/09 02:12:05;;;;;;;13.70;9.57;;;;;;;8.69;69.73;99982.97;4994128;28;20050;-74
2022/05/09 02:14:30;;;;;;;16.50;9.90;;;;;;;8.85;69.51;99984.31;4991820;28;20045;-74
2022/05/09 02:16:56;;;;;;;15.65;9.55;;;;;;;8.52;70.72;99989.97;4990882;28;20068;-75
2022/05/09 02:19:21;;;;;;;16.55;9.80;;;;;;;8.49;71.05;99993.34;5006527;28;20026;-75
2022/05/09 02:21:47;;;;;;;18.70;9.70;;;;;;;7.99;73.51;100019.88;4992127;28;20041;-74
2022/05/09 02:24:12;;;;;;;14.70;10.10;;;;;;;8.03;73.30;100011.75;5003843;28;20092;-74
2022/05/09 02:26:38;;;;;;;15.18;10.48;;;;;;;8.19;73.68;100017.84;4994218;28;20061;-75
2022/05/09 02:29:04;;;;;;;21.80;11.23;;;;;;;7.96;74.35;100017.72;4978753;28;20058;-74
2022/05/09 02:31:31;;;;;;;13.52;9.90;;;;;;;7.84;75.15;100006.19;4974606;28;20105;-75
2022/05/09 02:33:57;;;;;;;18.20;10.77;;;;;;;7.90;74.36;100010.56;4994417;28;20024;-74
2022/05/09 02:36:23;;;;;;;17.85;11.77;;;;;;;7.45;75.77;100017.34;4990937;28;20026;-74
2022/05/09 02:38:48;;;;;;;14.93;10.95;;;;;;;7.33;76.44;100021.72;4991483;28;20046;-75
2022/05/09 02:41:14;;;;;;;17.98;12.27;;;;;;;7.13;77.64;100029.22;4974745;28;20030;-75
2022/05/09 02:43:39;;;;;;;14.82;11.00;;;;;;;6.86;78.02;100006.44;4992564;28;20117;-74
2022/05/09 02:46:05;;;;;;;17.70;11.20;;;;;;;6.83;78.82;100020.97;4991649;28;20105;-75
2022/05/09 02:48:36;;;;;;;19.27;12.60;;;;;;;6.75;78.97;100021.59;4992018;28;20029;-74
2022/05/09 02:51:04;;;;;;;26.90;14.57;;;;;;;6.86;79.37;100033.44;4974370;28;20409;-75
2022/05/09 02:53:30;;;;;;;21.23;13.95;;;;;;;6.95;78.36;100034.47;4990626;28;20026;-74
2022/05/09 02:55:55;;;;;;;29.60;13.63;;;;;;;6.86;78.49;100023.13;4974594;28;20081;-75
2022/05/09 02:58:21;;;;;;;16.45;11.18;;;;;;;7.14;78.05;100036.44;4982914;28;20488;-75
2022/05/09 03:00:47;;;;;;;18.83;11.57;;;;;;;7.00;78.19;100012.13;4979395;28;20524;-75
2022/05/09 03:05:58;;;;;;;20.00;12.05;;;;;;;6.95;78.18;100000.25;4994728;28;20112;-74
2022/05/09 03:08:24;;;;;;;23.92;11.57;;;;;;;7.13;78.43;100029.22;4981427;28;20026;-75
2022/05/09 03:10:50;;;;;;;18.33;11.80;;;;;;;7.03;78.27;100027.41;4977969;28;20034;-75
2022/05/09 03:13:16;;;;;;;29.65;13.70;;;;;;;7.01;78.29;100022.13;4986952;28;20022;-75
2022/05/09 03:15:44;;;;;;;20.80;12.80;;;;;;;6.91;78.45;100019.47;4997230;28;20024;-74
2022/05/09 03:18:11;;;;;;;22.15;16.92;;;;;;;6.84;79.13;100027.34;4978448;28;20027;-74
2022/05/09 03:20:37;;;;;;;31.17;21.58;;;;;;;6.95;79.27;100050.31;4981281;28;20034;-74
2022/05/09 03:23:04;;;;;;;25.30;16.17;;;;;;;7.06;79.34;100039.88;5000625;28;20060;-75
2022/05/09 03:25:31;;;;;;;16.35;14.32;;;;;;;6.99;79.18;100041.06;4994970;28;20037;-74
2022/05/09 03:27:56;;;;;;;18.00;12.48;;;;;;;6.91;79.27;100050.06;5007849;28;20037;-75
2022/05/09 03:30:24;;;;;;;19.30;14.68;;;;;;;6.81;79.57;100034.34;4996798;28;20026;-75
2022/05/09 03:32:52;;;;;;;34.40;23.55;;;;;;;6.97;79.47;100059.16;5014508;28;20049;-75
2022/05/09 03:35:18;;;;;;;25.30;18.60;;;;;;;6.74;79.11;100033.84;4996549;28;20022;-74
2022/05/09 03:37:43;;;;;;;19.75;13.82;;;;;;;6.81;79.83;100070.47;4996397;28;20025;-74
2022/05/09 03:40:15;;;;;;;24.73;13.93;;;;;;;6.51;80.86;100046.63;4982310;28;20112;-75
2022/05/09 03:42:40;;;;;;;29.23;13.10;;;;;;;6.44;80.70;100033.88;4992901;28;20089;-79
2022/05/09 03:45:09;;;;;;;20.58;13.32;;;;;;;6.68;80.71;100060.88;4976775;28;20022;-76
2022/05/09 03:47:35;;;;;;;18.73;11.73;;;;;;;6.52;80.40;100046.34;4983621;28;20477;-76
2022/05/09 03:50:00;;;;;;;17.60;12.38;;;;;;;6.53;80.63;100050.78;4989762;28;20057;-77
2022/05/09 03:52:26;;;;;;;19.80;12.63;;;;;;;6.60;80.78;100056.78;4996441;28;20049;-77
2022/05/09 03:54:51;;;;;;;25.90;13.13;;;;;;;6.42;80.81;100038.91;4995873;28;20038;-76
2022/05/09 03:57:17;;;;;;;31.05;13.93;;;;;;;6.72;80.94;100080.59;4994678;28;20031;-77
2022/05/09 03:59:43;;;;;;;18.58;13.20;;;;;;;6.64;80.61;100056.22;4994549;28;20477;-75
2022/05/09 04:02:10;;;;;;;17.75;13.15;;;;;;;6.79;80.62;100081.06;4995671;28;20136;-74
2022/05/09 04:04:35;;;;;;;22.42;13.68;;;;;;;6.62;81.41;100047.31;4976331;28;20114;-73
2022/05/09 04:07:01;;;;;;;19.38;13.18;;;;;;;6.44;81.68;100050.56;4977243;28;20113;-74
2022/05/09 04:09:26;;;;;;;18.25;11.88;;;;;;;6.58;81.99;100059.03;4994699;28;20041;-75
2022/05/09 04:11:52;;;;;;;19.52;13.40;;;;;;;6.73;82.35;100073.91;4993670;28;20041;-75
2022/05/09 04:16:49;;;;;;;23.08;12.73;;;;;;;6.75;82.09;100057.75;4995366;28;20033;-75
2022/05/09 04:17:07;;;;;;;43.05;13.93;;;;;;;6.99;81.95;100063.31;5001779;28;20189;-75
2022/05/09 04:19:33;;;;;;;25.80;13.38;;;;;;;7.08;81.33;100055.16;5003879;28;20022;-74
2022/05/09 04:22:00;;;;;;;24.05;13.60;;;;;;;7.25;81.87;100084.44;4996027;28;20116;-77
2022/05/09 04:24:26;;;;;;;73.75;23.45;;;;;;;7.34;81.15;100060.38;4980905;28;20118;-74
2022/05/09 04:26:51;;;;;;;23.98;14.57;;;;;;;7.61;81.30;100070.06;5009437;28;20117;-75
2022/05/09 04:29:17;;;;;;;27.02;12.50;;;;;;;7.81;80.78;100068.06;5005025;28;20025;-75
2022/05/09 04:31:42;;;;;;;19.15;11.82;;;;;;;7.84;80.45;100064.69;5013444;28;20029;-75
2022/05/09 04:34:08;;;;;;;17.35;13.00;;;;;;;8.14;80.45;100085.69;4995705;28;20079;-75
2022/05/09 04:36:35;;;;;;;24.52;12.95;;;;;;;8.38;79.52;100089.47;5007294;28;20040;-76
2022/05/09 04:39:01;;;;;;;23.85;13.82;;;;;;;8.51;79.62;100082.31;5020802;28;20068;-76
2022/05/09 04:41:26;;;;;;;25.17;17.50;;;;;;;8.77;79.00;100088.22;4996310;28;20034;-75
2022/05/09 04:43:52;;;;;;;18.48;13.93;;;;;;;8.93;77.52;100087.94;4993305;28;20029;-75
2022/05/09 04:46:18;;;;;;;30.63;15.15;;;;;;;9.04;77.34;100096.94;4991312;28;20037;-75
2022/05/09 04:48:44;;;;;;;21.02;10.52;;;;;;;9.02;77.42;100090.84;4991173;28;20034;-75
2022/05/09 04:51:11;;;;;;;13.63;9.00;;;;;;;8.89;76.72;100084.13;4990759;28;20026;-74
2022/05/09 04:53:37;;;;;;;23.98;10.05;;;;;;;8.97;77.91;100083.41;4991465;28;20023;-74
2022/05/09 04:56:04;;;;;;;14.75;9.27;;;;;;;9.09;76.56;100082.88;4990697;28;20022;-73
2022/05/09 04:58:29;;;;;;;17.05;8.50;;;;;;;9.33;76.05;100079.88;4991254;28;20026;-73
2022/05/09 05:00:55;;;;;;;16.90;8.18;;;;;;;9.43;76.24;100078.00;4992918;28;20620;-73
2022/05/09 05:03:21;;;;;;;13.85;7.90;;;;;;;9.50;76.05;100083.97;5011261;28;20030;-74
2022/05/09 05:05:47;;;;;;;13.15;8.75;;;;;;;9.26;76.63;100085.88;4992395;28;20516;-75
2022/05/09 05:08:14;;;;;;;15.57;8.40;;;;;;;9.36;76.94;100084.84;4995595;28;20049;-75
2022/05/09 05:10:41;;;;;;;10.90;8.30;;;;;;;9.63;76.29;100083.13;4979624;28;20409;-75
2022/05/09 05:13:07;;;;;;;19.38;9.52;;;;;;;9.95;76.16;100084.09;4992333;28;20479;-76
2022/05/09 05:15:33;;;;;;;20.73;8.95;;;;;;;10.07;75.17;100085.50;5001274;28;20107;-75
2022/05/09 05:17:59;;;;;;;11.30;8.13;;;;;;;10.20;74.90;100079.00;4985175;28;20019;-75
2022/05/09 05:20:26;;;;;;;15.68;8.65;;;;;;;10.14;76.05;100088.69;4979998;28;20026;-76
2022/05/09 05:22:52;;;;;;;17.95;9.13;;;;;;;10.37;74.76;100083.06;4983941;28;20553;-75
2022/05/09 05:25:24;;;;;;;16.92;9.80;;;;;;;10.75;74.87;100088.28;4984735;28;20026;-75
2022/05/09 05:27:50;;;;;;;28.67;11.30;;;;;;;10.98;73.66;100079.84;4990284;28;20031;-75
2022/05/09 05:30:16;;;;;;;12.63;8.63;;;;;;;11.09;72.92;100081.16;4990566;28;20034;-75
2022/05/09 05:32:42;;;;;;;9.45;7.30;;;;;;;11.19;71.30;100090.44;4992653;28;20026;-76
2022/05/09 05:35:13;;;;;;;11.07;7.78;;;;;;;10.94;72.66;100087.19;4983483;28;20079;-75
2022/05/09 05:37:38;;;;;;;;;;;;;;;10.88;73.44;100085.72;4985234;28;20507;-75
2022/05/09 05:40:05;;;;;;;11.43;8.13;;;;;;;10.80;73.43;100087.31;4990239;28;19918;-75
2022/05/09 05:42:31;;;;;;;10.35;7.53;;;;;;;10.94;72.78;100079.66;4993069;28;20088;-78
2022/05/09 05:44:57;;;;;;;18.45;8.23;;;;;;;11.07;72.36;100077.06;5000835;28;20029;-77
2022/05/09 05:47:23;;;;;;;9.15;6.45;;;;;;;11.62;70.01;100084.13;5001688;28;20081;-77
2022/05/09 05:49:50;;;;;;;12.20;7.50;;;;;;;11.50;70.78;100078.34;4997760;28;20034;-78
2022/05/09 05:52:16;;;;;;;16.38;7.47;;;;;;;11.62;70.60;100074.88;5000347;28;20045;-77
2022/05/09 05:54:45;;;;;;;18.60;9.95;;;;;;;12.05;67.95;100074.13;4998181;28;20033;-77
2022/05/09 05:57:26;;;;;;;17.33;7.45;;;;;;;12.35;67.05;100074.25;4979230;28;20033;-76
2022/05/09 05:59:55;;;;;;;15.10;7.85;;;;;;;12.53;66.07;100065.81;5007222;28;20084;-75
2022/05/09 06:02:23;;;;;;;27.73;10.03;;;;;;;12.50;65.39;100072.09;5001475;28;20519;-75
2022/05/09 06:04:49;;;;;;;13.77;8.93;;;;;;;12.60;66.08;100079.31;4975340;28;20600;-76
2022/05/09 06:07:16;;;;;;;16.83;8.45;;;;;;;12.56;65.08;100079.16;4973073;28;20045;-75
2022/05/09 06:09:44;;;;;;;18.85;8.85;;;;;;;12.57;65.40;100077.19;5008337;28;20056;-76
2022/05/09 06:12:11;;;;;;;14.27;6.80;;;;;;;13.06;65.13;100063.63;4988703;28;20040;-74
2022/05/09 06:14:38;;;;;;;14.90;7.47;;;;;;;12.94;65.12;100086.00;4983600;28;20425;-76
2022/05/09 06:17:10;;;;;;;9.75;7.25;;;;;;;13.42;63.16;100088.75;4985017;28;20605;-73
2022/05/09 06:19:38;;;;;;;13.95;7.13;;;;;;;13.71;62.65;100065.44;4996641;28;20124;-73
2022/05/09 06:22:06;;;;;;;16.40;8.10;;;;;;;13.75;61.92;100085.25;4992303;28;20493;-76
2022/05/09 06:24:32;;;;;;;14.10;6.88;;;;;;;13.72;61.51;100060.63;4978175;28;20030;-75
2022/05/09 06:26:57;;;;;;;11.15;6.85;;;;;;;13.91;61.19;100051.72;4980983;28;20125;-74
2022/05/09 06:29:23;;;;;;;12.18;6.95;;;;;;;14.03;59.84;100071.47;4994576;28;20097;-72
2022/05/09 06:31:51;;;;;;;8.40;6.40;;;;;;;14.25;59.47;100079.91;4995106;28;20030;-73
2022/05/09 06:34:17;;;;;;;12.68;6.13;;;;;;;14.52;60.58;100074.84;4997722;28;20029;-73
2022/05/09 06:36:45;;;;;;;13.98;6.53;;;;;;;14.72;59.04;100074.00;4988018;28;20030;-73
2022/05/09 06:39:11;;;;;;;10.27;6.30;;;;;;;14.61;59.38;100072.75;5006099;28;20102;-74
2022/05/09 06:41:38;;;;;;;14.90;6.78;;;;;;;14.94;58.81;100068.25;4994307;28;20081;-73
2022/05/09 06:44:04;;;;;;;9.30;6.90;;;;;;;15.06;59.37;100073.91;4991413;28;20037;-74
2022/05/09 06:46:29;;;;;;;13.70;7.47;;;;;;;15.29;57.96;100060.16;5011565;28;20523;-73
2022/05/09 06:48:55;;;;;;;9.52;5.88;;;;;;;14.68;58.35;100060.91;5007881;28;20030;-74
2022/05/09 06:51:20;;;;;;;19.88;7.30;;;;;;;15.16;58.22;100066.97;4987553;28;20026;-72
2022/05/09 06:53:46;;;;;;;10.93;7.10;;;;;;;15.47;59.04;100067.56;4992062;28;20038;-73
2022/05/09 06:56:12;;;;;;;9.85;5.75;;;;;;;15.61;57.88;100061.56;5006202;28;20105;-73
2022/05/09 06:58:38;;;;;;;15.18;7.50;;;;;;;15.71;57.37;100061.06;4991548;28;20511;-73
2022/05/09 07:01:18;;;;;;;11.98;6.05;;;;;;;16.02;56.73;100065.22;4985771;28;20072;-72
2022/05/09 07:03:44;;;;;;;;;;;;;;;16.06;56.98;100057.72;4986587;28;20567;-72
2022/05/09 07:06:10;;;;;;;13.63;5.85;;;;;;;15.62;55.09;100051.91;5000722;28;19968;-73
2022/05/09 07:08:36;;;;;;;17.48;6.30;;;;;;;15.44;56.41;100058.63;4990740;28;20022;-72
2022/05/09 07:11:03;;;;;;;31.35;6.85;;;;;;;15.57;54.80;100061.44;4996821;28;20120;-73
2022/05/09 07:13:29;;;;;;;9.65;5.85;;;;;;;16.02;55.80;100055.97;5004948;28;20447;-71
2022/05/09 07:15:57;;;;;;;10.52;6.03;;;;;;;16.17;54.56;100049.53;5008407;28;20026;-72
2022/05/09 07:18:26;;;;;;;9.68;5.30;;;;;;;16.10;55.29;100050.16;4994932;28;20109;-72
2022/05/09 07:20:51;;;;;;;10.05;4.93;;;;;;;16.28;52.93;100045.03;4994883;28;20030;-72
2022/05/09 07:23:17;;;;;;;7.30;5.18;;;;;;;15.64;53.55;100044.75;4997665;28;20033;-72
2022/05/09 07:25:42;;;;;;;8.85;5.50;;;;;;;15.70;53.78;100043.31;4989583;28;20037;-72
2022/05/09 07:28:09;;;;;;;13.35;6.15;;;;;;;16.02;53.34;100042.66;5003537;28;20030;-72
2022/05/09 07:30:35;;;;;;;8.85;5.18;;;;;;;16.20;53.58;100043.19;5003503;28;20111;-72
2022/05/09 07:33:00;;;;;;;9.57;5.45;;;;;;;15.84;53.41;100031.66;4995683;28;20026;-72
2022/05/09 07:35:26;;;;;;;15.43;4.53;;;;;;;15.97;52.87;100029.63;4995139;28;20091;-73
2022/05/09 07:37:51;;;;;;;11.25;5.03;;;;;;;16.53;54.43;100030.78;5012011;28;20022;-72
2022/05/09 07:40:19;;;;;;;10.75;4.68;;;;;;;16.88;54.40;100034.91;5000502;28;20047;-75
2022/05/09 07:42:47;;;;;;;9.68;5.82;;;;;;;17.12;52.43;100036.75;4996047;28;20036;-71
2022/05/09 07:45:16;;;;;;;8.57;4.50;;;;;;;16.73;50.71;100030.06;4995893;28;20523;-72
2022/05/09 07:47:41;;;;;;;5.97;4.22;;;;;;;17.11;51.51;100037.94;4996355;28;20034;-72
2022/05/09 07:50:09;;;;;;;9.70;4.40;;;;;;;17.36;51.74;100032.06;4995517;28;20029;-72
2022/05/09 07:52:34;;;;;;;5.43;4.03;;;;;;;17.60;50.28;100035.00;5008194;28;20028;-72
2022/05/09 07:55:00;;;;;;;6.85;4.78;;;;;;;17.30;48.90;100032.72;5005275;28;20452;-72
2022/05/09 07:57:26;;;;;;;9.75;3.50;;;;;;;17.22;50.19;100023.25;4984515;28;20034;-72
2022/05/09 07:59:51;;;;;;;5.82;4.47;;;;;;;17.48;51.92;100030.31;4997418;28;20034;-74
2022/05/09 08:02:17;;;;;;;6.53;4.05;;;;;;;17.74;51.42;100026.03;5004365;28;20032;-72
2022/05/09 08:04:42;;;;;;;10.45;3.60;;;;;;;17.77;48.53;100023.28;4990414;28;20029;-72
2022/05/09 08:07:08;;;;;;;20.83;5.88;;;;;;;17.61;50.07;100014.03;5012927;28;20030;-72
2022/05/09 08:09:34;;;;;;;7.38;4.35;;;;;;;17.92;49.32;100013.09;4979773;28;20437;-72
2022/05/09 08:12:00;;;;;;;8.35;4.32;;;;;;;18.13;50.53;100013.94;4996848;28;20026;-72
2022/05/09 08:14:26;;;;;;;11.73;4.10;;;;;;;18.42;49.92;100021.00;4981863;28;20066;-72
2022/05/09 08:16:52;;;;;;;9.82;5.15;;;;;;;18.56;48.02;100028.91;4998236;28;20042;-71
2022/05/09 08:19:18;;;;;;;268.67;28.70;;;;;;;18.74;48.78;100023.56;4993722;28;20109;-75
2022/05/09 08:21:47;;;;;;;6.00;3.72;;;;;;;18.93;47.86;100022.69;4976777;28;20054;-73
2022/05/09 08:24:12;;;;;;;9.15;4.28;;;;;;;19.06;48.14;100020.50;4993738;28;20026;-73
2022/05/09 08:26:38;;;;;;;7.00;4.30;;;;;;;19.16;46.74;100023.91;4999902;28;20452;-73
2022/05/09 08:29:04;;;;;;;7.35;4.55;;;;;;;19.33;46.50;100022.56;4993615;28;20030;-73
2022/05/09 08:31:30;;;;;;;6.47;4.35;;;;;;;19.54;45.99;100030.56;5000993;28;20029;-73
2022/05/09 08:33:57;;;;;;;11.27;3.53;;;;;;;19.59;46.20;100018.06;4998124;28;20058;-74
2022/05/09 08:39:08;;;;;;;6.60;3.97;;;;;;;19.83;45.90;100024.47;4999881;28;20112;-75
2022/05/09 08:42:06;;;;;;;5.55;4.03;;;;;;;19.80;44.33;100013.91;4988188;28;20030;-75
2022/05/09 08:44:41;;;;;;;7.60;3.92;;;;;;;19.88;42.80;100012.75;5004602;28;20033;-77
2022/05/09 08:47:41;;;;;;;13.40;4.53;;;;;;;19.67;42.89;100013.31;4992716;28;20128;-73
2022/05/09 08:50:36;;;;;;;38.40;7.15;;;;;;;19.94;44.17;100013.28;4995650;28;20038;-74
2022/05/09 08:53:06;;;;;;;9.85;4.72;;;;;;;20.10;43.08;100005.38;4993412;28;20156;-74
2022/05/09 08:55:37;;;;;;;11.13;6.82;;;;;;;19.97;43.47;100006.81;4993333;28;20030;-74
2022/05/09 08:58:28;;;;;;;11.80;5.75;;;;;;;20.20;44.28;100007.50;4980505;28;20073;-72
2022/05/09 09:00:55;;;;;;;13.07;6.28;;;;;;;20.35;43.40;100013.38;4987971;28;20023;-74
2022/05/09 09:03:35;;;;;;;11.65;6.28;;;;;;;20.56;43.76;100012.78;5000886;28;20033;-73
2022/05/09 09:06:39;;;;;;;8.15;5.75;;;;;;;20.62;42.81;100005.50;4993825;28;20058;-72
2022/05/09 09:09:23;;;;;;;9.25;5.10;;;;;;;20.87;43.37;100009.84;4992093;28;20061;-74
2022/05/09 09:11:51;;;;;;;9.52;5.30;;;;;;;21.08;41.93;100006.34;5001950;28;20124;-74
2022/05/09 09:15:05;;;;;;;9.18;5.72;;;;;;;21.10;40.88;100011.66;4976155;28;20113;-74
2022/05/09 09:17:34;;;;;;;10.20;6.10;;;;;;;20.63;41.65;100012.03;4991568;28;20030;-75
2022/05/09 09:20:18;;;;;;;9.38;5.75;;;;;;;20.40;42.07;100010.16;5002723;28;20038;-73
2022/05/09 09:23:16;;;;;;;10.25;6.00;;;;;;;20.88;43.02;100000.94;4996802;28;20034;-73
2022/05/09 09:25:50;;;;;;;14.25;5.68;;;;;;;20.95;42.77;99999.34;5009209;28;20042;-73
2022/05/09 09:28:28;;;;;;;11.25;5.43;;;;;;;20.92;41.54;99995.25;4994503;28;20056;-73
2022/05/09 09:30:55;;;;;;;12.98;6.20;;;;;;;21.01;41.58;99987.19;4991242;28;20460;-74
2022/05/09 09:33:22;;;;;;;9.68;5.70;;;;;;;21.00;41.47;99988.41;4977245;28;20073;-76
2022/05/09 09:36:12;;;;;;;8.90;5.43;;;;;;;20.85;41.14;99986.69;4985970;28;20029;-73
2022/05/09 09:38:53;;;;;;;13.60;6.38;;;;;;;21.18;42.84;99985.69;4984121;28;20046;-73
2022/05/09 09:41:30;;;;;;;14.02;5.50;;;;;;;21.56;41.08;99984.72;4993300;28;20099;-73
2022/05/09 09:44:15;;;;;;;10.13;5.60;;;;;;;21.51;40.12;99991.59;5003236;28;20045;-73
2022/05/09 09:47:07;;;;;;;7.65;5.88;;;;;;;21.49;39.66;99964.78;4977900;28;20425;-74
2022/05/09 09:49:38;;;;;;;10.20;5.85;;;;;;;21.76;40.13;99956.78;4993683;28;20034;-75
2022/05/09 09:52:32;;;;;;;9.65;5.43;;;;;;;21.91;39.03;99977.59;4986729;28;20109;-74
2022/05/09 09:55:07;;;;;;;7.63;5.28;;;;;;;21.68;39.26;99955.94;4976282;28;20065;-75
2022/05/09 09:57:37;;;;;;;13.00;6.00;;;;;;;21.86;39.16;99956.00;4976820;28;20113;-74
2022/05/09 10:00:19;;;;;;;11.55;6.18;;;;;;;22.06;38.12;99971.94;4974923;28;20026;-74
2022/05/09 10:02:46;;;;;;;9.85;5.63;;;;;;;21.85;38.80;99945.03;4987280;28;20057;-75
2022/05/09 10:05:15;;;;;;;14.18;6.93;;;;;;;22.06;39.19;99954.84;5007731;28;20030;-74
2022/05/09 10:07:45;;;;;;;8.73;5.90;;;;;;;22.20;37.74;99951.25;4991933;28;20026;-74
2022/05/09 10:10:13;;;;;;;7.57;5.55;;;;;;;22.21;37.85;99965.09;4991702;28;20452;-74
2022/05/09 10:12:51;;;;;;;9.00;5.80;;;;;;;22.13;37.75;99946.34;4981685;28;20105;-75
2022/05/09 10:15:36;;;;;;;10.77;5.60;;;;;;;21.99;36.50;99945.09;4987917;28;20066;-74
2022/05/09 10:18:23;;;;;;;8.85;6.95;;;;;;;22.08;37.73;99936.16;4976386;28;20034;-75
2022/05/09 10:20:52;;;;;;;8.57;5.80;;;;;;;21.60;37.44;99940.84;4984374;28;20471;-74
2022/05/09 10:26:30;;;;;;;8.85;5.88;;;;;;;22.68;39.36;99941.53;4991518;28;20088;-75
2022/05/09 10:29:05;;;;;;;11.05;5.38;;;;;;;22.55;39.05;99935.44;4987344;28;20060;-74
2022/05/09 10:31:53;;;;;;;9.95;6.25;;;;;;;22.74;38.94;99939.94;5007733;28;20026;-76
2022/05/09 10:34:37;;;;;;;8.98;5.40;;;;;;;22.95;39.20;99949.69;4995509;28;20500;-74
2022/05/09 10:37:14;;;;;;;11.32;5.25;;;;;;;22.91;38.03;99926.88;4990637;28;20088;-75
2022/05/09 10:39:45;;;;;;;8.98;5.22;;;;;;;23.10;37.88;99954.16;4990730;28;20050;-75
2022/05/09 10:42:23;;;;;;;8.60;5.93;;;;;;;23.04;38.24;99935.81;4983822;28;20109;-74
2022/05/09 10:45:01;;;;;;;9.38;4.80;;;;;;;23.17;37.71;99938.25;4999021;28;20029;-75
2022/05/09 10:47:37;;;;;;;14.27;5.95;;;;;;;23.31;37.54;99926.84;4999485;28;20033;-74
2022/05/09 10:50:25;;;;;;;13.20;6.18;;;;;;;23.32;37.24;99948.44;4989180;28;20092;-75
2022/05/09 10:53:28;;;;;;;11.88;5.68;;;;;;;23.32;36.22;99954.16;4983112;28;20029;-75
2022/05/09 10:55:59;;;;;;;11.00;4.95;;;;;;;23.42;35.14;99955.34;4991620;28;20035;-74
2022/05/09 10:58:50;;;;;;;15.55;6.20;;;;;;;23.02;35.43;99949.69;4997125;28;20134;-74
2022/05/09 11:02:05;;;;;;;8.00;5.18;;;;;;;23.11;34.42;99946.44;4979932;28;20041;-74
2022/05/09 11:04:35;;;;;;;13.18;6.55;;;;;;;23.26;34.91;99945.16;4920071;29;20094;-77
2022/05/09 11:07:31;;;;;;;13.60;4.85;;;;;;;22.92;35.79;99942.78;4984030;28;20500;-78
2022/05/09 11:10:21;;;;;;;8.68;4.95;;;;;;;23.36;35.66;99952.09;5003459;28;20022;-74
2022/05/09 11:12:56;;;;;;;9.90;5.38;;;;;;;23.51;36.14;99946.34;4997885;28;20101;-80
2022/05/09 11:15:57;;;;;;;10.13;6.07;;;;;;;23.78;34.19;99932.38;4993229;28;20105;-78
2022/05/09 11:18:42;;;;;;;24.00;7.13;;;;;;;23.75;34.57;99943.81;4975542;28;20055;-74
2022/05/09 11:21:44;;;;;;;7.68;3.72;;;;;;;23.74;31.53;99943.00;4985925;28;20037;-78
2022/05/09 11:24:35;;;;;;;9.73;4.97;;;;;;;23.68;33.87;99914.06;4983444;28;20038;-78
2022/05/09 11:27:17;;;;;;;13.70;4.70;;;;;;;23.96;32.71;99925.78;4993221;28;20056;-74
2022/05/09 11:30:15;;;;;;;10.88;6.20;;;;;;;23.90;34.97;99927.41;5011579;28;20184;-76
2022/05/09 11:32:42;;;;;;;9.98;6.30;;;;;;;23.90;35.40;99924.56;4941975;28;20047;-74
2022/05/09 11:35:27;;;;;;;11.63;5.88;;;;;;;23.98;34.93;99923.31;4977038;28;20026;-74
2022/05/09 11:38:08;;;;;;;8.82;5.60;;;;;;;23.31;34.19;99915.44;4982191;28;20069;-77
2022/05/09 11:41:11;;;;;;;11.10;5.47;;;;;;;23.03;34.47;99928.47;4981240;28;20446;-79
2022/05/09 11:43:58;;;;;;;6.60;4.43;;;;;;;23.09;33.60;99923.19;4985276;28;20042;-74
2022/05/09 11:46:52;;;;;;;9.85;4.95;;;;;;;22.98;35.02;99915.44;4992873;28;20026;-76
2022/05/09 11:49:39;;;;;;;12.65;5.80;;;;;;;23.67;34.19;99914.47;4978894;28;20109;-78
2022/05/09 11:52:52;;;;;;;6.28;4.20;;;;;;;23.92;32.59;99905.78;4980103;28;20054;-77